CheckWX is a tool to help pilots better visualize weather data.  It is not intended as a substitute for an official pre-flight weather briefing.

18:38:54 UTC

KJEF METAR
Jefferson City Memorial Airport
Jefferson City, Missouri, USA
Current

46 mins ago

KJEF 261753Z 34004G15KT 10SM CLR 12/M04 A3041 RMK AO2 SLP290 T01221039 10122 20044 58007
Observed
Mar-26 @ 17:53 UTC
Wind
  • 340° at 4 KTS
  • Gusting to 15 KTS
Visibility
10 SM
Flight Rules
VFR
Cloud Levels
  • Clear skies
Temperature
12°C / 54°F
Dewpoint
-4°C / 25°F
Humidity
33%
Altimeter
30.41" Hg
Pressure
1029 hPa
Previous

2 hours ago

KJEF 261653Z 02007KT 340V040 10SM CLR 11/M04 A3043 RMK AO2 SLP296 T01061039
Observed
Mar-26 @ 16:53 UTC
Wind
  • 020° at 7 KTS
Visibility
10 SM
Flight Rules
VFR
Cloud Levels
  • Clear skies
Temperature
11°C / 52°F
Dewpoint
-4°C / 25°F
Humidity
35%
Altimeter
30.43" Hg
Pressure
1029.6 hPa
Previous

3 hours ago

KJEF 261553Z 02008KT 10SM FEW042 10/M05 A3044 RMK AO2 SLP298 T01001050
Observed
Mar-26 @ 15:53 UTC
Wind
  • 020° at 8 KTS
Visibility
10 SM
Flight Rules
VFR
Cloud Levels
  • Few at 4,200' AGL
Temperature
10°C / 50°F
Dewpoint
-5°C / 23°F
Humidity
35%
Altimeter
30.44" Hg
Pressure
1029.8 hPa